sensor_id;sensor_type;location;lat;lon;timestamp;P1;durP1;ratioP1;P2;durP2;ratioP2
17177;SDS011;8704;52.006;4.374;2023-07-22T14:30:46;7.20;;;2.47;;
17177;SDS011;8704;52.006;4.374;2023-07-22T14:33:16;7.25;;;2.17;;
17177;SDS011;8704;52.006;4.374;2023-07-22T14:35:44;5.38;;;2.13;;
17177;SDS011;8704;52.006;4.374;2023-07-22T14:38:12;6.53;;;2.35;;
17177;SDS011;8704;52.006;4.374;2023-07-22T14:40:41;5.40;;;2.17;;
17177;SDS011;8704;52.006;4.374;2023-07-22T14:43:09;6.57;;;2.17;;
17177;SDS011;8704;52.006;4.374;2023-07-22T14:45:37;6.88;;;2.30;;
17177;SDS011;8704;52.006;4.374;2023-07-22T14:48:07;5.53;;;2.40;;
17177;SDS011;8704;52.006;4.374;2023-07-22T14:50:35;7.43;;;2.50;;
17177;SDS011;8704;52.006;4.374;2023-07-22T14:53:03;7.43;;;2.53;;
17177;SDS011;8704;52.006;4.374;2023-07-22T14:55:31;7.40;;;2.60;;
17177;SDS011;8704;52.006;4.374;2023-07-22T14:57:59;7.00;;;2.42;;
17177;SDS011;8704;52.006;4.374;2023-07-22T15:00:27;6.05;;;2.50;;
17177;SDS011;8704;52.006;4.374;2023-07-22T15:02:56;7.30;;;2.50;;
17177;SDS011;8704;52.006;4.374;2023-07-22T15:05:28;7.90;;;2.97;;
17177;SDS011;8704;52.006;4.374;2023-07-22T15:07:56;8.55;;;2.53;;
17177;SDS011;8704;52.006;4.374;2023-07-22T15:10:24;6.70;;;2.72;;
17177;SDS011;8704;52.006;4.374;2023-07-22T15:12:52;6.32;;;2.28;;
17177;SDS011;8704;52.006;4.374;2023-07-22T15:15:22;5.85;;;2.45;;
17177;SDS011;8704;52.006;4.374;2023-07-22T15:17:50;6.80;;;2.45;;
17177;SDS011;8704;52.006;4.374;2023-07-22T15:20:19;7.55;;;2.38;;
17177;SDS011;8704;52.006;4.374;2023-07-22T15:22:48;6.07;;;2.50;;
17177;SDS011;8704;52.006;4.374;2023-07-22T15:25:16;5.38;;;2.20;;
17177;SDS011;8704;52.006;4.374;2023-07-22T15:27:45;8.02;;;2.60;;
17177;SDS011;8704;52.006;4.374;2023-07-22T15:30:13;7.15;;;2.47;;
17177;SDS011;8704;52.006;4.374;2023-07-22T15:32:41;6.22;;;2.40;;
17177;SDS011;8704;52.006;4.374;2023-07-22T15:35:09;8.60;;;2.55;;
17177;SDS011;8704;52.006;4.374;2023-07-22T15:37:37;9.07;;;2.60;;
17177;SDS011;8704;52.006;4.374;2023-07-22T15:40:07;6.78;;;2.67;;
17177;SDS011;8704;52.006;4.374;2023-07-22T15:42:35;9.43;;;2.35;;
17177;SDS011;8704;52.006;4.374;2023-07-22T15:45:04;9.57;;;2.80;;
17177;SDS011;8704;52.006;4.374;2023-07-22T15:47:35;7.05;;;2.35;;
17177;SDS011;8704;52.006;4.374;2023-07-22T15:50:03;4.60;;;2.35;;
17177;SDS011;8704;52.006;4.374;2023-07-22T15:52:32;7.68;;;2.40;;
17177;SDS011;8704;52.006;4.374;2023-07-22T15:55:03;5.50;;;2.20;;
17177;SDS011;8704;52.006;4.374;2023-07-22T15:57:33;6.72;;;2.58;;
17177;SDS011;8704;52.006;4.374;2023-07-22T16:00:02;5.68;;;2.72;;
17177;SDS011;8704;52.006;4.374;2023-07-22T16:02:31;6.35;;;2.60;;
17177;SDS011;8704;52.006;4.374;2023-07-22T16:04:59;8.18;;;2.60;;
17177;SDS011;8704;52.006;4.374;2023-07-22T16:07:27;7.22;;;2.40;;
17177;SDS011;8704;52.006;4.374;2023-07-22T16:09:56;12.30;;;2.70;;
17177;SDS011;8704;52.006;4.374;2023-07-22T16:12:24;8.65;;;2.53;;
17177;SDS011;8704;52.006;4.374;2023-07-22T16:14:55;10.45;;;2.95;;
17177;SDS011;8704;52.006;4.374;2023-07-22T16:17:24;9.18;;;2.38;;
17177;SDS011;8704;52.006;4.374;2023-07-22T16:19:52;9.65;;;2.40;;
17177;SDS011;8704;52.006;4.374;2023-07-22T16:22:20;6.15;;;2.38;;
17177;SDS011;8704;52.006;4.374;2023-07-22T16:24:48;12.38;;;2.47;;
17177;SDS011;8704;52.006;4.374;2023-07-22T16:27:17;6.53;;;2.53;;
17177;SDS011;8704;52.006;4.374;2023-07-22T16:29:45;9.18;;;2.75;;
17177;SDS011;8704;52.006;4.374;2023-07-22T16:32:15;8.60;;;2.30;;
17177;SDS011;8704;52.006;4.374;2023-07-22T16:34:43;5.90;;;2.35;;
17177;SDS011;8704;52.006;4.374;2023-07-22T16:37:11;6.32;;;2.80;;
17177;SDS011;8704;52.006;4.374;2023-07-22T16:39:39;7.57;;;2.72;;
17177;SDS011;8704;52.006;4.374;2023-07-22T16:42:07;6.30;;;2.60;;
17177;SDS011;8704;52.006;4.374;2023-07-22T16:44:35;6.72;;;2.80;;
17177;SDS011;8704;52.006;4.374;2023-07-22T16:47:03;7.40;;;2.78;;
17177;SDS011;8704;52.006;4.374;2023-07-22T16:49:33;6.63;;;2.58;;
17177;SDS011;8704;52.006;4.374;2023-07-22T16:52:02;7.57;;;2.83;;
17177;SDS011;8704;52.006;4.374;2023-07-22T16:54:31;6.55;;;2.67;;
17177;SDS011;8704;52.006;4.374;2023-07-22T16:56:59;7.60;;;3.40;;
17177;SDS011;8704;52.006;4.374;2023-07-22T16:59:27;10.02;;;3.42;;
17177;SDS011;8704;52.006;4.374;2023-07-22T17:01:55;7.95;;;3.00;;
17177;SDS011;8704;52.006;4.374;2023-07-22T17:04:23;9.05;;;3.22;;
17177;SDS011;8704;52.006;4.374;2023-07-22T17:06:53;7.05;;;2.78;;
17177;SDS011;8704;52.006;4.374;2023-07-22T17:09:21;7.20;;;2.67;;
17177;SDS011;8704;52.006;4.374;2023-07-22T17:11:49;5.65;;;2.78;;
17177;SDS011;8704;52.006;4.374;2023-07-22T17:14:17;8.95;;;3.08;;
17177;SDS011;8704;52.006;4.374;2023-07-22T17:16:45;8.02;;;3.22;;
17177;SDS011;8704;52.006;4.374;2023-07-22T17:19:13;9.18;;;3.58;;
17177;SDS011;8704;52.006;4.374;2023-07-22T17:21:44;6.70;;;3.00;;
17177;SDS011;8704;52.006;4.374;2023-07-22T17:24:14;8.38;;;3.53;;
17177;SDS011;8704;52.006;4.374;2023-07-22T17:26:42;7.50;;;3.67;;
17177;SDS011;8704;52.006;4.374;2023-07-22T17:29:10;10.02;;;3.72;;
17177;SDS011;8704;52.006;4.374;2023-07-22T17:31:39;7.97;;;3.45;;
17177;SDS011;8704;52.006;4.374;2023-07-22T17:34:07;9.05;;;3.63;;
17177;SDS011;8704;52.006;4.374;2023-07-22T17:36:35;10.40;;;4.05;;
17177;SDS011;8704;52.006;4.374;2023-07-22T17:39:03;9.35;;;3.95;;
17177;SDS011;8704;52.006;4.374;2023-07-22T17:41:33;9.73;;;3.72;;
17177;SDS011;8704;52.006;4.374;2023-07-22T17:44:01;10.30;;;4.07;;
17177;SDS011;8704;52.006;4.374;2023-07-22T17:46:30;13.00;;;4.47;;
17177;SDS011;8704;52.006;4.374;2023-07-22T17:48:58;9.82;;;4.20;;
17177;SDS011;8704;52.006;4.374;2023-07-22T17:51:26;9.27;;;4.32;;
17177;SDS011;8704;52.006;4.374;2023-07-22T17:53:55;11.18;;;4.53;;
17177;SDS011;8704;52.006;4.374;2023-07-22T17:56:23;10.60;;;4.07;;
17177;SDS011;8704;52.006;4.374;2023-07-22T17:58:52;10.35;;;4.40;;
17177;SDS011;8704;52.006;4.374;2023-07-22T18:01:20;13.57;;;4.68;;
17177;SDS011;8704;52.006;4.374;2023-07-22T18:03:49;10.30;;;5.22;;
17177;SDS011;8704;52.006;4.374;2023-07-22T18:06:17;12.13;;;4.72;;
17177;SDS011;8704;52.006;4.374;2023-07-22T18:08:45;12.25;;;5.30;;
17177;SDS011;8704;52.006;4.374;2023-07-22T18:11:13;10.90;;;5.78;;
17177;SDS011;8704;52.006;4.374;2023-07-22T18:13:41;12.52;;;5.78;;
17177;SDS011;8704;52.006;4.374;2023-07-22T18:16:11;12.98;;;6.40;;
17177;SDS011;8704;52.006;4.374;2023-07-22T18:18:39;11.27;;;5.15;;
17177;SDS011;8704;52.006;4.374;2023-07-22T18:21:07;10.90;;;5.50;;
17177;SDS011;8704;52.006;4.374;2023-07-22T18:23:35;10.45;;;5.03;;
17177;SDS011;8704;52.006;4.374;2023-07-22T18:26:03;10.93;;;5.25;;
17177;SDS011;8704;52.006;4.374;2023-07-22T18:28:31;11.60;;;5.15;;
17177;SDS011;8704;52.006;4.374;2023-07-22T18:30:59;8.65;;;5.10;;
17177;SDS011;8704;52.006;4.374;2023-07-22T18:33:29;11.38;;;5.10;;
17177;SDS011;8704;52.006;4.374;2023-07-22T18:35:57;11.98;;;5.47;;
17177;SDS011;8704;52.006;4.374;2023-07-22T18:38:25;10.50;;;5.63;;
17177;SDS011;8704;52.006;4.374;2023-07-22T18:40:54;8.82;;;5.03;;
17177;SDS011;8704;52.006;4.374;2023-07-22T18:43:22;14.60;;;5.40;;
17177;SDS011;8704;52.006;4.374;2023-07-22T18:45:50;11.02;;;5.32;;
17177;SDS011;8704;52.006;4.374;2023-07-22T18:48:18;11.68;;;5.28;;
17177;SDS011;8704;52.006;4.374;2023-07-22T18:50:53;9.35;;;5.43;;
17177;SDS011;8704;52.006;4.374;2023-07-22T18:53:21;8.07;;;4.90;;
17177;SDS011;8704;52.006;4.374;2023-07-22T18:55:50;12.93;;;5.97;;
17177;SDS011;8704;52.006;4.374;2023-07-22T18:58:18;10.07;;;5.47;;
17177;SDS011;8704;52.006;4.374;2023-07-22T19:00:46;10.98;;;5.68;;
17177;SDS011;8704;52.006;4.374;2023-07-22T19:03:14;9.38;;;5.20;;
17177;SDS011;8704;52.006;4.374;2023-07-22T19:05:42;11.30;;;5.65;;
17177;SDS011;8704;52.006;4.374;2023-07-22T19:08:11;11.20;;;5.85;;
17177;SDS011;8704;52.006;4.374;2023-07-22T19:10:43;10.50;;;5.80;;
17177;SDS011;8704;52.006;4.374;2023-07-22T19:13:11;9.73;;;5.72;;
17177;SDS011;8704;52.006;4.374;2023-07-22T19:15:40;10.02;;;6.15;;
17177;SDS011;8704;52.006;4.374;2023-07-22T19:18:08;10.52;;;6.07;;
17177;SDS011;8704;52.006;4.374;2023-07-22T19:20:36;12.38;;;5.93;;
17177;SDS011;8704;52.006;4.374;2023-07-22T19:23:04;10.90;;;6.18;;
17177;SDS011;8704;52.006;4.374;2023-07-22T19:25:36;10.63;;;5.95;;
17177;SDS011;8704;52.006;4.374;2023-07-22T19:28:05;11.30;;;6.28;;
17177;SDS011;8704;52.006;4.374;2023-07-22T19:30:35;10.65;;;5.90;;
17177;SDS011;8704;52.006;4.374;2023-07-22T19:33:04;15.23;;;6.70;;
17177;SDS011;8704;52.006;4.374;2023-07-22T19:35:32;12.35;;;6.40;;
17177;SDS011;8704;52.006;4.374;2023-07-22T19:38:01;8.35;;;5.78;;
17177;SDS011;8704;52.006;4.374;2023-07-22T19:40:29;9.65;;;5.90;;
17177;SDS011;8704;52.006;4.374;2023-07-22T19:43:00;9.73;;;5.57;;
17177;SDS011;8704;52.006;4.374;2023-07-22T19:45:28;8.48;;;6.05;;
17177;SDS011;8704;52.006;4.374;2023-07-22T19:47:56;9.52;;;5.88;;
17177;SDS011;8704;52.006;4.374;2023-07-22T19:50:24;9.60;;;6.55;;
17177;SDS011;8704;52.006;4.374;2023-07-22T19:52:52;9.90;;;6.57;;
17177;SDS011;8704;52.006;4.374;2023-07-22T19:55:21;11.82;;;6.72;;
17177;SDS011;8704;52.006;4.374;2023-07-22T19:57:49;11.57;;;6.25;;
17177;SDS011;8704;52.006;4.374;2023-07-22T20:00:18;12.20;;;6.78;;
17177;SDS011;8704;52.006;4.374;2023-07-22T20:02:47;12.50;;;7.20;;
17177;SDS011;8704;52.006;4.374;2023-07-22T20:05:15;9.48;;;6.03;;
17177;SDS011;8704;52.006;4.374;2023-07-22T20:07:43;17.42;;;6.95;;
17177;SDS011;8704;52.006;4.374;2023-07-22T20:10:11;11.40;;;6.95;;
17177;SDS011;8704;52.006;4.374;2023-07-22T20:12:39;11.45;;;7.20;;
17177;SDS011;8704;52.006;4.374;2023-07-22T20:15:08;16.42;;;7.03;;
17177;SDS011;8704;52.006;4.374;2023-07-22T20:17:38;12.70;;;7.25;;
17177;SDS011;8704;52.006;4.374;2023-07-22T20:20:06;8.80;;;6.93;;
17177;SDS011;8704;52.006;4.374;2023-07-22T20:22:35;11.93;;;7.35;;
17177;SDS011;8704;52.006;4.374;2023-07-22T20:25:03;11.52;;;6.85;;
17177;SDS011;8704;52.006;4.374;2023-07-22T20:27:32;10.60;;;6.70;;
17177;SDS011;8704;52.006;4.374;2023-07-22T20:30:00;11.63;;;6.47;;
17177;SDS011;8704;52.006;4.374;2023-07-22T20:32:28;18.13;;;15.13;;
17177;SDS011;8704;52.006;4.374;2023-07-22T20:34:58;25.70;;;16.80;;
17177;SDS011;8704;52.006;4.374;2023-07-22T20:37:26;18.33;;;15.40;;
17177;SDS011;8704;52.006;4.374;2023-07-22T20:39:55;16.05;;;12.10;;
17177;SDS011;8704;52.006;4.374;2023-07-22T20:42:23;13.35;;;9.70;;
17177;SDS011;8704;52.006;4.374;2023-07-22T20:44:51;14.40;;;8.50;;
17177;SDS011;8704;52.006;4.374;2023-07-22T20:47:19;14.10;;;8.20;;
17177;SDS011;8704;52.006;4.374;2023-07-22T20:49:47;10.55;;;7.72;;
17177;SDS011;8704;52.006;4.374;2023-07-22T20:52:19;12.82;;;8.90;;
17177;SDS011;8704;52.006;4.374;2023-07-22T20:54:48;12.95;;;8.38;;
17177;SDS011;8704;52.006;4.374;2023-07-22T20:57:16;13.82;;;8.48;;
17177;SDS011;8704;52.006;4.374;2023-07-22T20:59:45;11.95;;;8.85;;
17177;SDS011;8704;52.006;4.374;2023-07-22T21:02:14;12.50;;;8.80;;
17177;SDS011;8704;52.006;4.374;2023-07-22T21:04:42;14.90;;;8.60;;
17177;SDS011;8704;52.006;4.374;2023-07-22T21:07:13;12.60;;;8.40;;
17177;SDS011;8704;52.006;4.374;2023-07-22T21:09:43;16.45;;;9.25;;
17177;SDS011;8704;52.006;4.374;2023-07-22T21:12:11;12.90;;;8.95;;
17177;SDS011;8704;52.006;4.374;2023-07-22T21:14:39;17.77;;;9.25;;
17177;SDS011;8704;52.006;4.374;2023-07-22T21:17:07;14.00;;;8.75;;
17177;SDS011;8704;52.006;4.374;2023-07-22T21:19:36;13.95;;;9.00;;
17177;SDS011;8704;52.006;4.374;2023-07-22T21:22:04;12.88;;;9.13;;
17177;SDS011;8704;52.006;4.374;2023-07-22T21:24:33;15.27;;;8.75;;
17177;SDS011;8704;52.006;4.374;2023-07-22T21:27:02;13.32;;;8.45;;
17177;SDS011;8704;52.006;4.374;2023-07-22T21:29:31;12.35;;;8.68;;
17177;SDS011;8704;52.006;4.374;2023-07-22T21:31:59;14.02;;;8.90;;
17177;SDS011;8704;52.006;4.374;2023-07-22T21:34:28;12.90;;;9.45;;
17177;SDS011;8704;52.006;4.374;2023-07-22T21:36:57;12.60;;;8.88;;
17177;SDS011;8704;52.006;4.374;2023-07-22T21:39:25;14.65;;;8.98;;
17177;SDS011;8704;52.006;4.374;2023-07-22T21:41:53;13.43;;;9.48;;
17177;SDS011;8704;52.006;4.374;2023-07-22T21:44:26;14.33;;;8.47;;
17177;SDS011;8704;52.006;4.374;2023-07-22T21:46:54;12.23;;;7.95;;
17177;SDS011;8704;52.006;4.374;2023-07-22T21:49:23;12.93;;;8.35;;
17177;SDS011;8704;52.006;4.374;2023-07-22T21:51:51;13.43;;;8.10;;
17177;SDS011;8704;52.006;4.374;2023-07-22T21:54:19;10.45;;;7.40;;
17177;SDS011;8704;52.006;4.374;2023-07-22T21:56:47;16.80;;;8.70;;
17177;SDS011;8704;52.006;4.374;2023-07-22T21:59:15;12.88;;;8.68;;
17177;SDS011;8704;52.006;4.374;2023-07-22T22:01:44;11.82;;;8.25;;
17177;SDS011;8704;52.006;4.374;2023-07-22T22:04:12;11.48;;;8.02;;
17177;SDS011;8704;52.006;4.374;2023-07-22T22:06:41;10.82;;;8.35;;
17177;SDS011;8704;52.006;4.374;2023-07-22T22:09:10;11.48;;;8.18;;
17177;SDS011;8704;52.006;4.374;2023-07-22T22:11:38;11.25;;;7.93;;
17177;SDS011;8704;52.006;4.374;2023-07-22T22:14:07;12.70;;;8.48;;
17177;SDS011;8704;52.006;4.374;2023-07-22T22:16:35;10.57;;;7.18;;
17177;SDS011;8704;52.006;4.374;2023-07-22T22:19:04;11.15;;;7.32;;
17177;SDS011;8704;52.006;4.374;2023-07-22T22:21:32;12.25;;;7.28;;
17177;SDS011;8704;52.006;4.374;2023-07-22T22:24:00;10.10;;;7.85;;
17177;SDS011;8704;52.006;4.374;2023-07-22T22:26:28;11.40;;;7.57;;
17177;SDS011;8704;52.006;4.374;2023-07-22T22:28:56;10.00;;;7.57;;
17177;SDS011;8704;52.006;4.374;2023-07-22T22:31:25;11.85;;;9.02;;
17177;SDS011;8704;52.006;4.374;2023-07-22T22:33:53;11.43;;;8.45;;
17177;SDS011;8704;52.006;4.374;2023-07-22T22:36:22;12.15;;;8.07;;
17177;SDS011;8704;52.006;4.374;2023-07-22T22:38:50;13.45;;;8.00;;
17177;SDS011;8704;52.006;4.374;2023-07-22T22:41:18;12.77;;;7.90;;
17177;SDS011;8704;52.006;4.374;2023-07-22T22:43:47;12.60;;;7.95;;
17177;SDS011;8704;52.006;4.374;2023-07-22T22:46:15;13.05;;;8.63;;
17177;SDS011;8704;52.006;4.374;2023-07-22T22:48:43;11.80;;;8.63;;
17177;SDS011;8704;52.006;4.374;2023-07-22T22:51:11;13.82;;;8.80;;
17177;SDS011;8704;52.006;4.374;2023-07-22T22:53:40;12.27;;;9.05;;
17177;SDS011;8704;52.006;4.374;2023-07-22T22:56:08;11.65;;;9.27;;
17177;SDS011;8704;52.006;4.374;2023-07-22T22:58:37;12.13;;;8.85;;
17177;SDS011;8704;52.006;4.374;2023-07-22T23:01:10;12.23;;;8.40;;
17177;SDS011;8704;52.006;4.374;2023-07-22T23:03:39;12.13;;;8.93;;
17177;SDS011;8704;52.006;4.374;2023-07-22T23:06:10;11.52;;;7.65;;
17177;SDS011;8704;52.006;4.374;2023-07-22T23:08:40;11.43;;;8.13;;
17177;SDS011;8704;52.006;4.374;2023-07-22T23:11:09;10.43;;;8.95;;
17177;SDS011;8704;52.006;4.374;2023-07-22T23:13:38;13.18;;;8.90;;
17177;SDS011;8704;52.006;4.374;2023-07-22T23:16:06;12.75;;;9.02;;
17177;SDS011;8704;52.006;4.374;2023-07-22T23:18:35;12.27;;;9.60;;
17177;SDS011;8704;52.006;4.374;2023-07-22T23:21:03;13.73;;;8.98;;
17177;SDS011;8704;52.006;4.374;2023-07-22T23:23:31;13.00;;;8.98;;
17177;SDS011;8704;52.006;4.374;2023-07-22T23:26:00;15.75;;;9.63;;
17177;SDS011;8704;52.006;4.374;2023-07-22T23:28:28;14.02;;;9.90;;
17177;SDS011;8704;52.006;4.374;2023-07-22T23:30:57;12.48;;;9.20;;
17177;SDS011;8704;52.006;4.374;2023-07-22T23:33:25;15.82;;;9.88;;
17177;SDS011;8704;52.006;4.374;2023-07-22T23:35:54;13.65;;;10.13;;
17177;SDS011;8704;52.006;4.374;2023-07-22T23:38:23;14.63;;;9.60;;
17177;SDS011;8704;52.006;4.374;2023-07-22T23:40:51;13.27;;;9.40;;
17177;SDS011;8704;52.006;4.374;2023-07-22T23:43:22;13.10;;;9.23;;
17177;SDS011;8704;52.006;4.374;2023-07-22T23:45:51;15.00;;;10.63;;
17177;SDS011;8704;52.006;4.374;2023-07-22T23:48:20;14.50;;;9.07;;
17177;SDS011;8704;52.006;4.374;2023-07-22T23:50:49;13.55;;;10.13;;
17177;SDS011;8704;52.006;4.374;2023-07-22T23:53:18;14.32;;;9.93;;
17177;SDS011;8704;52.006;4.374;2023-07-22T23:55:46;12.90;;;9.20;;
17177;SDS011;8704;52.006;4.374;2023-07-22T23:58:14;14.15;;;10.45;;
